Time;durP1;ratioP1;P1;durP2;ratioP2;P2;SDS_P1;SDS_P2;PMS_P1;PMS_P2;Temp;Humidity;BMP_temperature;BMP_pressure;BME280_temperature;BME280_humidity;BME280_pressure;Samples;Min_cycle;Max_cycle;Signal;HPM_P1;HPM_P2
2024/04/05 00:00:53;;;;;;;;;;;;;;;;;;5033728;28;19921;-67
2024/04/05 00:03:19;;;;;;;;;;;;;;;;;;5027055;28;19933;-67
2024/04/05 00:05:45;;;;;;;;;;;;;;;;;;5042028;28;19927;-66
2024/04/05 00:08:11;;;;;;;;;;;;;;;;;;5044678;28;19928;-67
2024/04/05 00:10:38;;;;;;;;;;;;;;;;;;5053289;28;19924;-66
2024/04/05 00:13:04;;;;;;;;;;;;;;;;;;5049162;28;19928;-67
2024/04/05 00:15:30;;;;;;;;;;;;;;;;;;5029541;28;19924;-67
2024/04/05 00:17:55;;;;;;;;;;;;;;;;;;5025413;28;19921;-67
2024/04/05 00:20:21;;;;;;;;;;;;;;;;;;5046206;28;19929;-67
2024/04/05 00:22:47;;;;;;;;;;;;;;;;;;5046679;28;19952;-67
2024/04/05 00:25:13;;;;;;;;;;;;;;;;;;5053236;28;20356;-67
2024/04/05 00:27:39;;;;;;;;;;;;;;;;;;5053468;28;19932;-67
2024/04/05 00:30:05;;;;;;;;;;;;;;;;;;5037608;28;20301;-67
2024/04/05 00:32:31;;;;;;;;;;;;;;;;;;5022711;28;20127;-68
2024/04/05 00:34:57;;;;;;;;;;;;;;;;;;5026871;28;19924;-67
2024/04/05 00:37:23;;;;;;;;;;;;;;;;;;5043044;28;19924;-66
2024/04/05 00:39:49;;;;;;;;;;;;;;;;;;5030500;28;19925;-66
2024/04/05 00:42:14;;;;;;;;;;;;;;;;;;5029757;28;20277;-67
2024/04/05 00:44:40;;;;;;;;;;;;;;;;;;5010557;28;19952;-67
2024/04/05 00:47:06;;;;;;;;;;;;;;;;;;5031765;28;20008;-66
2024/04/05 00:49:32;;;;;;;;;;;;;;;;;;5028862;28;19925;-66
2024/04/05 00:51:58;;;;;;;;;;;;;;;;;;5024055;28;19921;-66
2024/04/05 00:54:24;;;;;;;;;;;;;;;;;;4998270;28;19971;-67
2024/04/05 00:56:50;;;;;;;;;;;;;;;;;;5002037;28;20396;-67
2024/04/05 00:59:16;;;;;;;;;;;;;;;;;;5025238;28;19925;-67
2024/04/05 01:01:42;;;;;;;;;;;;;;;;;;5029541;28;19932;-66
2024/04/05 01:04:08;;;;;;;;;;;;;;;;;;5011629;28;19924;-66
2024/04/05 01:06:34;;;;;;;;;;;;;;;;;;5018956;28;20024;-67
2024/04/05 01:09:00;;;;;;;;;;;;;;;;;;5050964;28;20435;-67
2024/04/05 01:11:26;;;;;;;;;;;;;;;;;;5028625;28;20008;-66
2024/04/05 01:13:52;;;;;;;;;;;;;;;;;;5032163;28;19925;-66
2024/04/05 01:16:18;;;;;;;;;;;;;;;;;;5031416;28;19925;-67
2024/04/05 01:18:44;;;;;;;;;;;;;;;;;;5044419;28;19928;-66
2024/04/05 01:21:10;;;;;;;;;;;;;;;;;;5041357;28;20383;-66
2024/04/05 01:23:36;;;;;;;;;;;;;;;;;;5039672;28;19925;-67
2024/04/05 01:26:02;;;;;;;;;;;;;;;;;;5044997;28;19933;-66
2024/04/05 01:28:28;;;;;;;;;;;;;;;;;;5047639;28;19920;-65
2024/04/05 01:30:54;;;;;;;;;;;;;;;;;;5012156;28;20276;-65
2024/04/05 01:33:20;;;;;;;;;;;;;;;;;;5032629;28;19929;-66
2024/04/05 01:35:46;;;;;;;;;;;;;;;;;;5033714;28;19921;-67
2024/04/05 01:38:12;;;;;;;;;;;;;;;;;;5034225;28;19925;-66
2024/04/05 01:40:38;;;;;;;;;;;;;;;;;;5032135;28;20292;-66
2024/04/05 01:43:04;;;;;;;;;;;;;;;;;;5028641;28;19929;-66
2024/04/05 01:45:30;;;;;;;;;;;;;;;;;;5032959;28;19924;-66
2024/04/05 01:47:56;;;;;;;;;;;;;;;;;;5033987;28;19931;-67
2024/04/05 01:50:22;;;;;;;;;;;;;;;;;;5040926;28;19925;-66
2024/04/05 01:52:48;;;;;;;;;;;;;;;;;;5024244;28;20388;-66
2024/04/05 01:55:13;;;;;;;;;;;;;;;;;;5020872;28;20042;-66
2024/04/05 01:57:39;;;;;;;;;;;;;;;;;;5020477;28;20370;-66
2024/04/05 02:00:05;;;;;;;;;;;;;;;;;;5039670;28;19929;-66
2024/04/05 02:02:31;;;;;;;;;;;;;;;;;;5033786;28;19939;-66
2024/04/05 02:04:57;;;;;;;;;;;;;;;;;;5043049;28;19921;-66
2024/04/05 02:07:23;;;;;;;;;;;;;;;;;;5039660;28;19928;-66
2024/04/05 02:09:49;;;;;;;;;;;;;;;;;;5035986;28;19925;-66
2024/04/05 02:12:15;;;;;;;;;;;;;;;;;;5034941;28;19925;-66
2024/04/05 02:14:41;;;;;;;;;;;;;;;;;;5044777;28;19932;-67
2024/04/05 02:17:07;;;;;;;;;;;;;;;;;;5032431;28;19921;-66
2024/04/05 02:19:33;;;;;;;;;;;;;;;;;;5039357;28;20442;-66
2024/04/05 02:21:59;;;;;;;;;;;;;;;;;;5051982;28;19978;-66
2024/04/05 02:24:25;;;;;;;;;;;;;;;;;;5048480;28;19921;-67
2024/04/05 02:26:51;;;;;;;;;;;;;;;;;;5031463;28;19928;-66
2024/04/05 02:29:17;;;;;;;;;;;;;;;;;;5032007;28;19929;-67
2024/04/05 02:31:43;;;;;;;;;;;;;;;;;;5035073;28;20398;-67
2024/04/05 02:34:09;;;;;;;;;;;;;;;;;;5040007;28;20308;-67
2024/04/05 02:36:35;;;;;;;;;;;;;;;;;;5030053;28;19928;-67
2024/04/05 02:39:00;;;;;;;;;;;;;;;;;;5026980;28;19928;-66
2024/04/05 02:41:26;;;;;;;;;;;;;;;;;;5049550;28;19920;-67
2024/04/05 02:43:52;;;;;;;;;;;;;;;;;;5035188;28;20276;-66
2024/04/05 02:46:18;;;;;;;;;;;;;;;;;;5030216;28;19921;-66
2024/04/05 02:48:44;;;;;;;;;;;;;;;;;;5030307;28;19936;-67
2024/04/05 02:51:10;;;;;;;;;;;;;;;;;;5012255;28;19975;-66
2024/04/05 02:53:36;;;;;;;;;;;;;;;;;;5017353;28;20020;-66
2024/04/05 02:56:02;;;;;;;;;;;;;;;;;;5030957;28;19931;-67
2024/04/05 02:58:28;;;;;;;;;;;;;;;;;;5045790;28;19978;-66
2024/04/05 03:00:54;;;;;;;;;;;;;;;;;;5031352;28;19921;-66
2024/04/05 03:03:20;;;;;;;;;;;;;;;;;;5039617;28;19971;-66
2024/04/05 03:05:45;;;;;;;;;;;;;;;;;;5028595;28;19921;-66
2024/04/05 03:08:11;;;;;;;;;;;;;;;;;;5007867;28;19929;-66
2024/04/05 03:10:37;;;;;;;;;;;;;;;;;;5018127;28;19933;-67
2024/04/05 03:13:03;;;;;;;;;;;;;;;;;;5028088;28;20327;-66
2024/04/05 03:15:29;;;;;;;;;;;;;;;;;;5012811;28;19925;-67
2024/04/05 03:17:55;;;;;;;;;;;;;;;;;;5040326;28;19925;-66
2024/04/05 03:20:21;;;;;;;;;;;;;;;;;;5038048;28;20031;-67
2024/04/05 03:22:47;;;;;;;;;;;;;;;;;;5020577;28;20007;-67
2024/04/05 03:25:13;;;;;;;;;;;;;;;;;;5050984;23;19964;-63
2024/04/05 03:27:39;;;;;;;;;;;;;;;;;;5054642;28;20328;-63
2024/04/05 03:30:05;;;;;;;;;;;;;;;;;;5074339;28;19943;-63
2024/04/05 03:32:31;;;;;;;;;;;;;;;;;;5074688;28;19943;-63
2024/04/05 03:34:56;;;;;;;;;;;;;;;;;;5071315;28;19920;-63
2024/04/05 03:37:22;;;;;;;;;;;;;;;;;;5061635;28;19928;-63
2024/04/05 03:39:48;;;;;;;;;;;;;;;;;;5072957;28;19920;-63
2024/04/05 03:42:15;;;;;;;;;;;;;;;;;;5074671;28;19921;-63
2024/04/05 03:44:41;;;;;;;;;;;;;;;;;;5069349;28;19924;-63
2024/04/05 03:47:07;;;;;;;;;;;;;;;;;;5073200;28;19920;-63
2024/04/05 03:49:33;;;;;;;;;;;;;;;;;;5072227;28;19932;-62
2024/04/05 03:51:59;;;;;;;;;;;;;;;;;;5073385;28;19943;-63
2024/04/05 03:54:25;;;;;;;;;;;;;;;;;;5073160;28;20280;-64
2024/04/05 03:56:50;;;;;;;;;;;;;;;;;;5055945;28;19920;-63
2024/04/05 03:59:16;;;;;;;;;;;;;;;;;;5071909;28;19927;-64
2024/04/05 04:01:42;;;;;;;;;;;;;;;;;;5072844;28;19946;-63
2024/04/05 04:04:08;;;;;;;;;;;;;;;;;;5072235;28;20279;-63
2024/04/05 04:06:34;;;;;;;;;;;;;;;;;;5073979;28;19920;-63
2024/04/05 04:09:00;;;;;;;;;;;;;;;;;;5067815;28;19994;-63
2024/04/05 04:11:26;;;;;;;;;;;;;;;;;;5072630;28;20740;-63
2024/04/05 04:13:52;;;;;;;;;;;;;;;;;;5071519;28;19924;-63
2024/04/05 04:16:20;;;;;;;;;;;;;;;;;;5072807;28;20287;-63
2024/04/05 04:18:48;;;;;;;;;;;;;;;;;;5056109;28;19920;-64
2024/04/05 04:21:14;;;;;;;;;;;;;;;;;;5071307;28;20881;-63
2024/04/05 04:23:40;;;;;;;;;;;;;;;;;;5048936;28;19927;-63
2024/04/05 04:26:06;;;;;;;;;;;;;;;;;;5073649;28;20295;-63
2024/04/05 04:28:32;;;;;;;;;;;;;;;;;;5072981;28;19925;-63
2024/04/05 04:30:59;;;;;;;;;;;;;;;;;;5053601;28;19974;-63
2024/04/05 04:33:25;;;;;;;;;;;;;;;;;;5073400;28;20482;-63
2024/04/05 04:35:51;;;;;;;;;;;;;;;;;;5071842;28;19924;-63
2024/04/05 04:38:18;;;;;;;;;;;;;;;;;;5047366;28;19928;-63
2024/04/05 04:40:44;;;;;;;;;;;;;;;;;;5072934;28;19933;-63
2024/04/05 04:43:10;;;;;;;;;;;;;;;;;;5071762;28;19928;-63
2024/04/05 04:45:36;;;;;;;;;;;;;;;;;;5068967;28;20330;-63
2024/04/05 04:48:02;;;;;;;;;;;;;;;;;;5072390;28;19924;-63
2024/04/05 04:50:28;;;;;;;;;;;;;;;;;;5053851;28;20014;-63
2024/04/05 04:52:54;;;;;;;;;;;;;;;;;;5072347;28;19924;-63
2024/04/05 04:55:19;;;;;;;;;;;;;;;;;;5073760;28;19969;-63
2024/04/05 04:57:45;;;;;;;;;;;;;;;;;;5072282;28;19924;-63
2024/04/05 05:00:11;;;;;;;;;;;;;;;;;;5072718;28;20274;-63
2024/04/05 05:02:38;;;;;;;;;;;;;;;;;;5071620;28;20057;-63
2024/04/05 05:05:03;;;;;;;;;;;;;;;;;;5052671;28;19999;-63
2024/04/05 05:07:31;;;;;;;;;;;;;;;;;;5073029;28;20023;-63
2024/04/05 05:09:57;;;;;;;;;;;;;;;;;;5071753;28;19920;-63
2024/04/05 05:12:23;;;;;;;;;;;;;;;;;;5052258;28;20009;-63
2024/04/05 05:14:49;;;;;;;;;;;;;;;;;;5071118;28;19920;-63
2024/04/05 05:17:15;;;;;;;;;;;;;;;;;;5036444;28;19927;-63
2024/04/05 05:19:41;;;;;;;;;;;;;;;;;;5055736;28;20742;-63
2024/04/05 05:22:07;;;;;;;;;;;;;;;;;;5067175;28;20010;-63
2024/04/05 05:24:33;;;;;;;;;;;;;;;;;;5038274;28;20202;-63
2024/04/05 05:26:59;;;;;;;;;;;;;;;;;;5070561;28;19925;-63
2024/04/05 05:29:25;;;;;;;;;;;;;;;;;;5070596;28;19924;-63
2024/04/05 05:31:51;;;;;;;;;;;;;;;;;;5069911;28;20362;-63
2024/04/05 05:34:17;;;;;;;;;;;;;;;;;;5047018;28;19920;-63
2024/04/05 05:36:42;;;;;;;;;;;;;;;;;;5068572;28;19924;-63
2024/04/05 05:39:11;;;;;;;;;;;;;;;;;;5031680;28;19925;-63
2024/04/05 05:41:37;;;;;;;;;;;;;;;;;;5066145;28;19924;-63
2024/04/05 05:44:03;;;;;;;;;;;;;;;;;;5068832;28;19931;-63
2024/04/05 05:46:29;;;;;;;;;;;;;;;;;;5041311;28;20453;-63
2024/04/05 05:48:55;;;;;;;;;;;;;;;;;;5065582;28;19935;-63
2024/04/05 05:51:21;;;;;;;;;;;;;;;;;;5063509;28;19928;-63
2024/04/05 05:53:47;;;;;;;;;;;;;;;;;;5070205;28;19928;-63
2024/04/05 05:56:13;;;;;;;;;;;;;;;;;;5062147;28;20368;-63
2024/04/05 05:58:39;;;;;;;;;;;;;;;;;;5065113;28;19924;-62
2024/04/05 06:01:05;;;;;;;;;;;;;;;;;;5039464;28;20382;-63
2024/04/05 06:03:32;;;;;;;;;;;;;;;;;;5067524;28;19924;-63
2024/04/05 06:05:57;;;;;;;;;;;;;;;;;;5066398;28;20418;-63
2024/04/05 06:08:23;;;;;;;;;;;;;;;;;;5060624;28;19955;-63
2024/04/05 06:10:49;;;;;;;;;;;;;;;;;;5052495;28;19928;-63
2024/04/05 06:13:15;;;;;;;;;;;;;;;;;;5044728;28;19925;-63
2024/04/05 06:15:41;;;;;;;;;;;;;;;;;;5068927;28;20275;-63
2024/04/05 06:18:07;;;;;;;;;;;;;;;;;;5071672;28;20356;-63
2024/04/05 06:20:33;;;;;;;;;;;;;;;;;;5070481;28;19932;-63
2024/04/05 06:22:59;;;;;;;;;;;;;;;;;;5072086;28;19935;-63
2024/04/05 06:25:25;;;;;;;;;;;;;;;;;;5071454;28;19928;-64
2024/04/05 06:27:52;;;;;;;;;;;;;;;;;;5072096;28;19943;-63
2024/04/05 06:30:18;;;;;;;;;;;;;;;;;;5071347;28;20401;-63
2024/04/05 06:32:44;;;;;;;;;;;;;;;;;;5071264;28;19974;-63
2024/04/05 06:35:10;;;;;;;;;;;;;;;;;;5071891;28;19924;-62
2024/04/05 06:37:36;;;;;;;;;;;;;;;;;;5065158;28;19977;-62
2024/04/05 06:40:02;;;;;;;;;;;;;;;;;;5071007;28;20399;-62
2024/04/05 06:42:28;;;;;;;;;;;;;;;;;;5071800;28;19986;-63
2024/04/05 06:44:54;;;;;;;;;;;;;;;;;;5071493;28;19974;-62
2024/04/05 06:47:21;;;;;;;;;;;;;;;;;;5069551;28;19924;-62
2024/04/05 06:49:47;;;;;;;;;;;;;;;;;;5070099;28;19959;-62
2024/04/05 06:52:13;;;;;;;;;;;;;;;;;;5066354;28;19928;-63
2024/04/05 06:54:39;;;;;;;;;;;;;;;;;;5050732;28;19927;-62
2024/04/05 06:57:05;;;;;;;;;;;;;;;;;;5071419;28;19936;-63
2024/04/05 06:59:34;;;;;;;;;;;;;;;;;;5069526;28;19921;-63
2024/04/05 07:02:00;;;;;;;;;;;;;;;;;;5053755;28;19928;-63
2024/04/05 07:04:26;;;;;;;;;;;;;;;;;;5074270;28;20271;-63
2024/04/05 07:06:52;;;;;;;;;;;;;;;;;;5070655;28;19920;-64
2024/04/05 07:09:27;;;;;;;;;;;;;;;;;;5073010;28;20016;-64
2024/04/05 07:11:53;;;;;;;;;;;;;;;;;;5053794;28;19924;-64
2024/04/05 07:14:19;;;;;;;;;;;;;;;;;;5054547;28;19927;-64
2024/04/05 07:16:46;;;;;;;;;;;;;;;;;;5047378;28;19925;-63
2024/04/05 07:19:12;;;;;;;;;;;;;;;;;;5056321;28;19974;-63
2024/04/05 07:21:38;;;;;;;;;;;;;;;;;;5048315;28;19928;-63
2024/04/05 07:24:04;;;;;;;;;;;;;;;;;;5074053;28;19921;-63
2024/04/05 07:26:30;;;;;;;;;;;;;;;;;;5073101;28;19940;-63
2024/04/05 07:28:56;;;;;;;;;;;;;;;;;;5038435;28;19927;-63
2024/04/05 07:31:22;;;;;;;;;;;;;;;;;;5071768;28;19942;-63
2024/04/05 07:33:48;;;;;;;;;;;;;;;;;;5072711;28;20311;-63
2024/04/05 07:36:16;;;;;;;;;;;;;;;;;;5053292;28;19924;-63
2024/04/05 07:38:42;;;;;;;;;;;;;;;;;;5072898;28;19925;-63
2024/04/05 07:41:07;;;;;;;;;;;;;;;;;;5055834;28;19927;-63
2024/04/05 07:43:33;;;;;;;;;;;;;;;;;;5072467;28;19932;-63
2024/04/05 07:45:59;;;;;;;;;;;;;;;;;;5070737;28;20011;-63
2024/04/05 07:48:25;;;;;;;;;;;;;;;;;;5070045;28;20273;-63
2024/04/05 07:50:51;;;;;;;;;;;;;;;;;;5071860;28;20003;-63
2024/04/05 07:53:17;;;;;;;;;;;;;;;;;;5071469;28;19920;-63
2024/04/05 07:55:43;;;;;;;;;;;;;;;;;;5068200;28;19925;-63
2024/04/05 07:58:09;;;;;;;;;;;;;;;;;;5072230;28;20019;-63
2024/04/05 08:00:35;;;;;;;;;;;;;;;;;;5071980;28;19921;-63
2024/04/05 08:03:01;;;;;;;;;;;;;;;;;;5072781;28;20383;-63
2024/04/05 08:05:27;;;;;;;;;;;;;;;;;;5071097;28;20399;-63
2024/04/05 08:07:53;;;;;;;;;;;;;;;;;;5054422;28;19976;-63
2024/04/05 08:10:19;;;;;;;;;;;;;;;;;;5068463;28;19934;-62
2024/04/05 08:12:45;;;;;;;;;;;;;;;;;;5069954;28;20276;-63
2024/04/05 08:15:12;;;;;;;;;;;;;;;;;;5053895;28;19924;-63
2024/04/05 08:17:37;;;;;;;;;;;;;;;;;;5058613;28;19985;-63
2024/04/05 08:20:03;;;;;;;;;;;;;;;;;;5066016;28;20288;-63
2024/04/05 08:22:29;;;;;;;;;;;;;;;;;;5071508;28;19932;-63
2024/04/05 08:24:55;;;;;;;;;;;;;;;;;;5063783;28;20280;-63
2024/04/05 08:27:21;;;;;;;;;;;;;;;;;;5072640;28;20292;-63
2024/04/05 08:29:48;;;;;;;;;;;;;;;;;;5071891;28;20421;-63
2024/04/05 08:32:14;;;;;;;;;;;;;;;;;;5072251;28;19920;-63
2024/04/05 08:34:40;;;;;;;;;;;;;;;;;;5071312;28;19994;-63
2024/04/05 08:37:06;;;;;;;;;;;;;;;;;;5073092;28;19924;-63
2024/04/05 08:39:32;;;;;;;;;;;;;;;;;;5051024;28;20368;-62
2024/04/05 08:41:57;;;;;;;;;;;;;;;;;;5072509;28;19924;-63
2024/04/05 08:44:23;;;;;;;;;;;;;;;;;;5071418;28;19973;-63
2024/04/05 08:46:49;;;;;;;;;;;;;;;;;;5065706;28;19975;-63
2024/04/05 08:49:16;;;;;;;;;;;;;;;;;;5048913;28;20433;-63
2024/04/05 08:51:42;;;;;;;;;;;;;;;;;;5036651;28;20014;-63
2024/04/05 08:54:08;;;;;;;;;;;;;;;;;;5073487;28;20007;-63
2024/04/05 08:56:33;;;;;;;;;;;;;;;;;;5073344;28;20053;-63
2024/04/05 08:58:59;;;;;;;;;;;;;;;;;;5055535;28;20326;-63
2024/04/05 09:01:25;;;;;;;;;;;;;;;;;;5072200;28;19924;-63
2024/04/05 09:03:52;;;;;;;;;;;;;;;;;;5049866;28;19928;-63
2024/04/05 09:06:19;;;;;;;;;;;;;;;;;;5071351;28;19921;-63
2024/04/05 09:08:45;;;;;;;;;;;;;;;;;;5070766;28;19942;-63
2024/04/05 09:11:10;;;;;;;;;;;;;;;;;;5068771;28;20007;-63
2024/04/05 09:13:37;;;;;;;;;;;;;;;;;;5069552;28;20274;-63
2024/04/05 09:16:03;;;;;;;;;;;;;;;;;;5053340;28;20015;-63
2024/04/05 09:18:29;;;;;;;;;;;;;;;;;;5070224;28;20308;-64
2024/04/05 09:20:55;;;;;;;;;;;;;;;;;;5068347;28;19926;-63
2024/04/05 09:23:21;;;;;;;;;;;;;;;;;;5052135;28;19932;-63
2024/04/05 09:25:48;;;;;;;;;;;;;;;;;;5050796;28;19939;-63
2024/04/05 09:28:18;;;;;;;;;;;;;;;;;;5071995;28;19959;-63
2024/04/05 09:30:44;;;;;;;;;;;;;;;;;;5050935;28;20028;-63
2024/04/05 09:33:09;;;;;;;;;;;;;;;;;;5071624;28;20574;-63
2024/04/05 09:35:35;;;;;;;;;;;;;;;;;;5071821;28;19927;-63
2024/04/05 09:38:03;;;;;;;;;;;;;;;;;;5071488;28;20427;-63
2024/04/05 09:40:29;;;;;;;;;;;;;;;;;;5069458;28;19967;-63
2024/04/05 09:42:55;;;;;;;;;;;;;;;;;;5071176;28;19960;-62
2024/04/05 09:45:25;;;;;;;;;;;;;;;;;;5052321;28;19924;-63
2024/04/05 09:47:51;;;;;;;;;;;;;;;;;;5072262;28;19966;-63
2024/04/05 09:50:17;;;;;;;;;;;;;;;;;;5033440;28;19920;-63
2024/04/05 09:52:43;;;;;;;;;;;;;;;;;;5069795;28;19931;-63
2024/04/05 09:55:10;;;;;;;;;;;;;;;;;;5072133;28;19928;-63
2024/04/05 09:57:36;;;;;;;;;;;;;;;;;;5067966;28;19928;-63
2024/04/05 10:00:09;;;;;;;;;;;;;;;;;;5071499;28;20398;-63
2024/04/05 10:02:35;;;;;;;;;;;;;;;;;;5053032;28;20684;-63
2024/04/05 10:05:01;;;;;;;;;;;;;;;;;;5053245;28;19925;-61
2024/04/05 10:07:27;;;;;;;;;;;;;;;;;;5053457;28;19920;-61
2024/04/05 10:09:53;;;;;;;;;;;;;;;;;;5077483;28;19924;-62
2024/04/05 10:12:21;;;;;;;;;;;;;;;;;;5046289;28;19924;-62
2024/04/05 10:14:47;;;;;;;;;;;;;;;;;;5069596;28;20009;-62
2024/04/05 10:17:13;;;;;;;;;;;;;;;;;;5068418;28;19928;-64
2024/04/05 10:19:38;;;;;;;;;;;;;;;;;;5049151;28;19966;-62
2024/04/05 10:22:04;;;;;;;;;;;;;;;;;;5038936;28;20306;-62
2024/04/05 10:24:30;;;;;;;;;;;;;;;;;;5068463;28;19924;-60
2024/04/05 10:26:56;;;;;;;;;;;;;;;;;;5060053;28;19929;-61
2024/04/05 10:29:22;;;;;;;;;;;;;;;;;;5067718;28;19926;-61
2024/04/05 10:31:48;;;;;;;;;;;;;;;;;;5044068;28;19994;-61
2024/04/05 10:34:14;;;;;;;;;;;;;;;;;;5052814;28;20701;-61
2024/04/05 10:36:40;;;;;;;;;;;;;;;;;;5071407;28;19978;-61
2024/04/05 10:39:06;;;;;;;;;;;;;;;;;;5071288;28;20392;-61
2024/04/05 10:41:32;;;;;;;;;;;;;;;;;;5068067;28;20003;-61
2024/04/05 10:43:58;;;;;;;;;;;;;;;;;;5069574;28;19931;-61
2024/04/05 10:46:24;;;;;;;;;;;;;;;;;;5069836;28;20453;-61
2024/04/05 10:48:50;;;;;;;;;;;;;;;;;;5054491;28;20261;-61
2024/04/05 10:51:16;;;;;;;;;;;;;;;;;;5070378;28;19920;-61
2024/04/05 10:53:42;;;;;;;;;;;;;;;;;;5071320;28;19932;-61
2024/04/05 10:56:08;;;;;;;;;;;;;;;;;;5052934;28;19920;-61
2024/04/05 10:58:34;;;;;;;;;;;;;;;;;;5051172;28;19974;-60
2024/04/05 11:01:00;;;;;;;;;;;;;;;;;;5052491;28;19931;-60
2024/04/05 11:03:26;;;;;;;;;;;;;;;;;;5070124;28;20382;-61
2024/04/05 11:05:51;;;;;;;;;;;;;;;;;;5071370;28;19967;-60
2024/04/05 11:08:17;;;;;;;;;;;;;;;;;;5069543;28;20012;-60
2024/04/05 11:10:43;;;;;;;;;;;;;;;;;;5050870;28;20016;-61
2024/04/05 11:13:09;;;;;;;;;;;;;;;;;;5068201;28;20275;-61
2024/04/05 11:15:35;;;;;;;;;;;;;;;;;;5070702;28;19961;-60
2024/04/05 11:18:01;;;;;;;;;;;;;;;;;;5071443;28;19960;-60
2024/04/05 11:20:29;;;;;;;;;;;;;;;;;;5070562;28;20343;-60
2024/04/05 11:22:55;;;;;;;;;;;;;;;;;;5070711;28;19933;-61
2024/04/05 11:25:21;;;;;;;;;;;;;;;;;;5069717;28;19924;-61
2024/04/05 11:27:47;;;;;;;;;;;;;;;;;;5071627;28;20083;-61
2024/04/05 11:30:13;;;;;;;;;;;;;;;;;;5071334;28;19925;-61
2024/04/05 11:32:41;;;;;;;;;;;;;;;;;;5060861;28;19974;-61
2024/04/05 11:35:08;;;;;;;;;;;;;;;;;;5035631;28;19925;-61
2024/04/05 11:37:34;;;;;;;;;;;;;;;;;;5071246;28;19921;-61
2024/04/05 11:40:00;;;;;;;;;;;;;;;;;;5070938;28;19957;-61
2024/04/05 11:42:26;;;;;;;;;;;;;;;;;;5070895;28;19929;-61
2024/04/05 11:44:53;;;;;;;;;;;;;;;;;;5061563;28;20394;-61
2024/04/05 11:47:21;;;;;;;;;;;;;;;;;;5069504;28;19924;-61
2024/04/05 11:49:47;;;;;;;;;;;;;;;;;;5045814;28;20476;-61
2024/04/05 11:52:13;;;;;;;;;;;;;;;;;;5046539;28;19968;-61
2024/04/05 11:54:39;;;;;;;;;;;;;;;;;;5069626;28;20003;-62
2024/04/05 11:57:05;;;;;;;;;;;;;;;;;;5065300;28;19920;-61
2024/04/05 11:59:31;;;;;;;;;;;;;;;;;;5074833;28;20392;-62
2024/04/05 12:01:56;;;;;;;;;;;;;;;;;;5074757;28;20016;-62
2024/04/05 12:04:23;;;;;;;;;;;;;;;;;;5056942;28;20109;-62
2024/04/05 12:06:49;;;;;;;;;;;;;;;;;;5074805;28;19920;-62
2024/04/05 12:09:16;;;;;;;;;;;;;;;;;;5074261;28;19930;-62
2024/04/05 12:11:42;;;;;;;;;;;;;;;;;;5054121;28;19959;-62
2024/04/05 12:14:08;;;;;;;;;;;;;;;;;;5074569;28;19968;-62
2024/04/05 12:16:34;;;;;;;;;;;;;;;;;;5074442;28;20283;-62
2024/04/05 12:19:00;;;;;;;;;;;;;;;;;;5074694;28;19920;-62
2024/04/05 12:21:26;;;;;;;;;;;;;;;;;;5074521;28;19921;-62
2024/04/05 12:23:52;;;;;;;;;;;;;;;;;;5074246;28;19936;-62
2024/04/05 12:26:19;;;;;;;;;;;;;;;;;;5050752;28;19928;-62
2024/04/05 12:28:45;;;;;;;;;;;;;;;;;;5054422;28;20363;-62
2024/04/05 12:31:12;;;;;;;;;;;;;;;;;;5019795;28;19971;-62
2024/04/05 12:33:38;;;;;;;;;;;;;;;;;;5073538;28;19973;-62
2024/04/05 12:36:03;;;;;;;;;;;;;;;;;;5074321;28;20305;-62
2024/04/05 12:38:33;;;;;;;;;;;;;;;;;;5055899;28;19924;-62
2024/04/05 12:40:58;;;;;;;;;;;;;;;;;;5074312;28;20003;-62
2024/04/05 12:43:24;;;;;;;;;;;;;;;;;;5072177;28;20007;-62
2024/04/05 12:45:50;;;;;;;;;;;;;;;;;;5055910;28;20011;-62
2024/04/05 12:48:16;;;;;;;;;;;;;;;;;;5074008;28;19920;-62
2024/04/05 12:50:42;;;;;;;;;;;;;;;;;;5055106;28;19928;-62
2024/04/05 12:53:08;;;;;;;;;;;;;;;;;;5053602;28;20565;-62
2024/04/05 12:55:34;;;;;;;;;;;;;;;;;;5072056;28;19924;-62
2024/04/05 12:58:00;;;;;;;;;;;;;;;;;;5053958;28;20395;-62
2024/04/05 13:00:27;;;;;;;;;;;;;;;;;;5072859;28;19920;-62
2024/04/05 13:02:53;;;;;;;;;;;;;;;;;;5072959;28;20018;-63
2024/04/05 13:05:18;;;;;;;;;;;;;;;;;;5073379;28;19974;-62
2024/04/05 13:07:44;;;;;;;;;;;;;;;;;;5072623;28;20425;-63
2024/04/05 13:10:10;;;;;;;;;;;;;;;;;;5071388;28;20015;-62
2024/04/05 13:12:37;;;;;;;;;;;;;;;;;;5072797;28;19978;-63
2024/04/05 13:15:03;;;;;;;;;;;;;;;;;;5072744;28;20015;-62
2024/04/05 13:17:29;;;;;;;;;;;;;;;;;;5066153;28;20022;-61
2024/04/05 13:19:55;;;;;;;;;;;;;;;;;;5037863;28;20023;-62
2024/04/05 13:22:24;;;;;;;;;;;;;;;;;;5070670;28;20007;-65
2024/04/05 13:24:50;;;;;;;;;;;;;;;;;;5070053;28;19920;-64
2024/04/05 13:27:16;;;;;;;;;;;;;;;;;;5063210;28;19936;-65
2024/04/05 13:29:41;;;;;;;;;;;;;;;;;;5071732;28;20359;-66
2024/04/05 13:32:07;;;;;;;;;;;;;;;;;;5052935;28;19973;-65
2024/04/05 13:34:33;;;;;;;;;;;;;;;;;;5067617;28;19978;-65
2024/04/05 13:36:59;;;;;;;;;;;;;;;;;;5070556;28;19924;-65
2024/04/05 13:39:25;;;;;;;;;;;;;;;;;;5066875;28;20355;-65
2024/04/05 13:41:51;;;;;;;;;;;;;;;;;;5033751;28;19920;-65
2024/04/05 13:44:18;;;;;;;;;;;;;;;;;;5063824;28;19924;-65
2024/04/05 13:46:43;;;;;;;;;;;;;;;;;;5069896;28;19929;-65
2024/04/05 13:49:09;;;;;;;;;;;;;;;;;;5067077;28;19982;-66
2024/04/05 13:51:36;;;;;;;;;;;;;;;;;;5066583;28;20395;-66
2024/04/05 13:54:03;;;;;;;;;;;;;;;;;;5066752;28;19925;-66
2024/04/05 13:56:29;;;;;;;;;;;;;;;;;;5061912;28;20380;-65
2024/04/05 13:58:55;;;;;;;;;;;;;;;;;;5052002;28;19978;-65
2024/04/05 14:01:21;;;;;;;;;;;;;;;;;;5063420;28;19974;-65
2024/04/05 14:03:48;;;;;;;;;;;;;;;;;;5050368;28;19970;-65
2024/04/05 14:06:14;;;;;;;;;;;;;;;;;;5054650;28;19928;-66
2024/04/05 14:08:43;;;;;;;;;;;;;;;;;;5045134;28;19928;-65
2024/04/05 14:11:09;;;;;;;;;;;;;;;;;;5067741;28;20406;-65
2024/04/05 14:13:35;;;;;;;;;;;;;;;;;;5070498;28;20039;-65
2024/04/05 14:16:01;;;;;;;;;;;;;;;;;;5051957;28;19926;-65
2024/04/05 14:18:27;;;;;;;;;;;;;;;;;;5068921;28;19921;-66
2024/04/05 14:20:55;;;;;;;;;;;;;;;;;;5050215;28;20055;-65
2024/04/05 14:23:20;;;;;;;;;;;;;;;;;;5058730;28;19931;-65
2024/04/05 14:25:46;;;;;;;;;;;;;;;;;;5063018;28;19928;-65
2024/04/05 14:28:12;;;;;;;;;;;;;;;;;;5069896;28;19969;-66
2024/04/05 14:30:39;;;;;;;;;;;;;;;;;;5040272;28;19921;-69
2024/04/05 14:33:05;;;;;;;;;;;;;;;;;;5048378;28;19975;-67
2024/04/05 14:35:31;;;;;;;;;;;;;;;;;;5068457;28;20524;-65
2024/04/05 14:37:57;;;;;;;;;;;;;;;;;;5046170;28;20276;-65
2024/04/05 14:40:23;;;;;;;;;;;;;;;;;;5070032;28;19931;-65
2024/04/05 14:42:49;;;;;;;;;;;;;;;;;;5051374;28;19928;-65
2024/04/05 14:45:15;;;;;;;;;;;;;;;;;;5070235;28;19947;-64
2024/04/05 14:47:41;;;;;;;;;;;;;;;;;;5051702;28;19924;-64
2024/04/05 14:50:08;;;;;;;;;;;;;;;;;;5071444;28;20279;-65
2024/04/05 14:52:34;;;;;;;;;;;;;;;;;;5071732;28;19924;-65
2024/04/05 14:55:00;;;;;;;;;;;;;;;;;;5068239;28;19920;-65
2024/04/05 14:57:26;;;;;;;;;;;;;;;;;;5050811;28;20291;-65
2024/04/05 14:59:52;;;;;;;;;;;;;;;;;;5070456;28;19927;-64
2024/04/05 15:02:19;;;;;;;;;;;;;;;;;;5049828;28;19924;-65
2024/04/05 15:04:44;;;;;;;;;;;;;;;;;;5051410;28;20295;-65
2024/04/05 15:07:10;;;;;;;;;;;;;;;;;;5068519;28;19920;-64
2024/04/05 15:09:37;;;;;;;;;;;;;;;;;;5071072;28;19928;-65
2024/04/05 15:12:03;;;;;;;;;;;;;;;;;;5051094;28;19967;-64
2024/04/05 15:14:29;;;;;;;;;;;;;;;;;;5070446;28;19956;-65
2024/04/05 15:16:56;;;;;;;;;;;;;;;;;;5069280;28;20418;-66
2024/04/05 15:19:22;;;;;;;;;;;;;;;;;;5071932;28;20005;-66
2024/04/05 15:21:49;;;;;;;;;;;;;;;;;;5065050;28;19920;-65
2024/04/05 15:24:15;;;;;;;;;;;;;;;;;;5072738;28;19924;-65
2024/04/05 15:26:41;;;;;;;;;;;;;;;;;;5053577;28;19946;-65
2024/04/05 15:29:06;;;;;;;;;;;;;;;;;;5053996;28;20403;-65
2024/04/05 15:31:37;;;;;;;;;;;;;;;;;;5071499;28;20016;-65
2024/04/05 15:34:03;;;;;;;;;;;;;;;;;;5069835;28;19930;-65
2024/04/05 15:36:29;;;;;;;;;;;;;;;;;;5054072;28;19924;-65
2024/04/05 15:38:55;;;;;;;;;;;;;;;;;;5070283;28;19924;-65
2024/04/05 15:41:21;;;;;;;;;;;;;;;;;;5080119;23;19924;-62
2024/04/05 15:43:47;;;;;;;;;;;;;;;;;;5092304;28;19964;-62
2024/04/05 15:46:18;;;;;;;;;;;;;;;;;;5087891;28;19924;-62
2024/04/05 15:48:44;;;;;;;;;;;;;;;;;;5084419;28;19951;-62
2024/04/05 15:51:11;;;;;;;;;;;;;;;;;;5093968;28;19942;-62
2024/04/05 15:53:37;;;;;;;;;;;;;;;;;;5092154;28;19963;-62
2024/04/05 15:56:04;;;;;;;;;;;;;;;;;;5074693;28;19986;-62
2024/04/05 15:58:30;;;;;;;;;;;;;;;;;;5054438;28;19955;-62
2024/04/05 16:00:56;;;;;;;;;;;;;;;;;;5076910;28;19927;-62
2024/04/05 16:03:22;;;;;;;;;;;;;;;;;;5094288;28;19943;-62
2024/04/05 16:05:48;;;;;;;;;;;;;;;;;;5094579;28;20291;-62
2024/04/05 16:08:14;;;;;;;;;;;;;;;;;;5093174;28;20569;-62
2024/04/05 16:10:41;;;;;;;;;;;;;;;;;;5094747;28;20053;-62
2024/04/05 16:13:07;;;;;;;;;;;;;;;;;;5088512;28;19946;-62
2024/04/05 16:15:33;;;;;;;;;;;;;;;;;;5074036;28;20003;-62
2024/04/05 16:17:59;;;;;;;;;;;;;;;;;;5092039;28;19924;-62
2024/04/05 16:20:25;;;;;;;;;;;;;;;;;;5090462;28;22277;-66
2024/04/05 16:22:51;;;;;;;;;;;;;;;;;;5092635;28;20303;-63
2024/04/05 16:25:17;;;;;;;;;;;;;;;;;;5093153;28;19924;-61
2024/04/05 16:27:43;;;;;;;;;;;;;;;;;;5087484;28;20066;-61
2024/04/05 16:30:09;;;;;;;;;;;;;;;;;;5093086;28;19920;-61
2024/04/05 16:32:35;;;;;;;;;;;;;;;;;;5084648;28;19924;-61
2024/04/05 16:35:02;;;;;;;;;;;;;;;;;;5093956;28;19928;-61
2024/04/05 16:37:28;;;;;;;;;;;;;;;;;;5088238;28;19920;-61